createdAt,value
2022-09-03T00:02:10.294Z,95816.28
2022-09-03T00:07:21.327Z,95818.88
2022-09-03T00:12:29.245Z,95832.47
2022-09-03T00:17:35.881Z,95805.31
2022-09-03T00:22:44.669Z,95797.63
2022-09-03T00:27:52.919Z,95804.31
2022-09-03T00:33:00.449Z,95810.19
2022-09-03T00:38:05.732Z,95805.31
2022-09-03T00:43:19.665Z,95809.16
2022-09-03T00:48:27.967Z,95840.81
2022-09-03T00:53:41.424Z,95857.22
2022-09-03T00:58:56.858Z,95869.81
2022-09-03T01:04:13.629Z,95867.97
2022-09-03T01:09:41.305Z,95869.97
2022-09-03T01:14:56.081Z,95872.91
2022-09-03T01:20:15.593Z,95873.91
2022-09-03T01:25:33.454Z,95865.53
2022-09-03T01:30:41.317Z,95837.94
2022-09-03T01:35:48.330Z,95844.06
2022-09-03T01:41:24.484Z,95856.63
2022-09-03T01:46:38.852Z,95860.72
2022-09-03T01:51:42.869Z,95871.72
2022-09-03T01:57:19.114Z,95874.63
2022-09-03T02:02:32.702Z,95870.88
2022-09-03T02:07:39.462Z,95868.41
2022-09-03T02:12:45.284Z,95871.19
2022-09-03T02:17:51.945Z,95881.25
2022-09-03T02:22:55.321Z,95886.34
2022-09-03T02:27:59.116Z,95884.13
2022-09-03T02:33:03.584Z,95890.25
2022-09-03T02:38:14.018Z,95886.25
2022-09-03T02:43:21.340Z,95890.69
2022-09-03T02:48:30.152Z,95890.28
2022-09-03T02:53:32.916Z,95878.13
2022-09-03T02:58:35.701Z,95875.69
2022-09-03T03:03:40.722Z,95860.34
2022-09-03T03:08:44.192Z,95853.03
2022-09-03T03:13:47.858Z,95868.25
2022-09-03T03:18:52.748Z,95866.69
2022-09-03T03:23:56.146Z,95867.94
2022-09-03T03:29:00.748Z,95868.69
2022-09-03T03:34:05.097Z,95861.09
2022-09-03T03:39:07.891Z,95869.19
2022-09-03T03:44:15.300Z,95856.81
2022-09-03T03:49:19.408Z,95854.78
2022-09-03T03:54:22.481Z,95854.59
2022-09-03T03:59:25.246Z,95848.91
2022-09-03T04:04:29.440Z,95851.28
2022-09-03T04:09:32.238Z,95837.66
2022-09-03T04:14:35.399Z,95842.34
2022-09-03T04:19:39.520Z,95847.44
2022-09-03T04:24:42.325Z,95846.28
2022-09-03T04:29:45.117Z,95843.81
2022-09-03T04:34:49.713Z,95824.75
2022-09-03T04:39:54.213Z,95826.22
2022-09-03T04:44:57.005Z,95822.34
2022-09-03T04:50:01.706Z,95809.78
2022-09-03T04:55:04.886Z,95797.97
2022-09-03T05:00:12.041Z,95808.53
2022-09-03T05:05:16.541Z,95793.97
2022-09-03T05:10:21.309Z,95808.63
2022-09-03T05:15:23.870Z,95809.78
2022-09-03T05:20:29.870Z,95826.72
2022-09-03T05:25:33.220Z,95791.94
2022-09-03T05:30:36.492Z,95824.09
2022-09-03T05:35:41.615Z,95817.00
2022-09-03T05:40:44.629Z,95812.56
2022-09-03T05:45:47.495Z,95829.31
2022-09-03T05:51:00.920Z,95809.38
2022-09-03T05:56:07.098Z,95809.84
2022-09-03T06:01:14.354Z,95796.31
2022-09-03T06:06:18.481Z,95790.25
2022-09-03T06:11:21.837Z,95799.03
2022-09-03T06:16:30.578Z,95815.03
2022-09-03T06:21:40.539Z,95812.25
2022-09-03T06:26:43.428Z,95827.28
2022-09-03T06:31:48.539Z,95820.47
2022-09-03T06:36:52.809Z,95824.16
2022-09-03T06:41:57.453Z,95825.00
2022-09-03T06:47:01.519Z,95823.00
2022-09-03T06:52:05.825Z,95837.81
2022-09-03T06:57:08.628Z,95833.97
2022-09-03T07:02:11.641Z,95831.75
2022-09-03T07:07:16.329Z,95838.91
2022-09-03T07:12:19.305Z,95839.63
2022-09-03T07:17:22.058Z,95836.66
2022-09-03T07:22:31.655Z,95849.38
2022-09-03T07:27:35.896Z,95850.09
2022-09-03T07:32:40.937Z,95859.25
2022-09-03T07:37:45.089Z,95850.31
2022-09-03T07:42:51.026Z,95841.00
2022-09-03T07:47:57.946Z,95855.81
2022-09-03T07:53:02.075Z,95870.25
2022-09-03T07:58:04.837Z,95865.81
2022-09-03T08:03:08.792Z,95869.28
2022-09-03T08:08:15.601Z,95878.03
2022-09-03T08:13:19.392Z,95885.19
2022-09-03T08:18:22.826Z,95884.25
2022-09-03T08:23:27.314Z,95885.34
2022-09-03T08:28:34.309Z,95873.75
2022-09-03T08:33:40.560Z,95887.56
2022-09-03T08:38:46.403Z,95907.13
2022-09-03T08:44:25.215Z,95905.41
2022-09-03T08:49:32.377Z,95918.28
2022-09-03T08:54:38.795Z,95912.25
2022-09-03T08:59:41.622Z,95924.91
2022-09-03T09:05:00.248Z,95924.34
2022-09-03T09:10:13.957Z,95925.94
2022-09-03T09:15:29.530Z,95947.34
2022-09-03T09:20:41.677Z,95943.69
2022-09-03T09:25:50.081Z,95944.53
2022-09-03T09:30:56.403Z,95937.59
2022-09-03T09:36:01.329Z,95943.25
2022-09-03T09:41:16.416Z,95927.16
2022-09-03T09:46:23.111Z,95930.13
2022-09-03T09:51:30.911Z,95932.78
2022-09-03T09:56:35.054Z,95933.38
2022-09-03T10:01:39.053Z,95941.63
2022-09-03T10:06:57.965Z,95936.91
2022-09-03T10:12:15.268Z,95941.06
2022-09-03T10:17:24.922Z,95930.66
2022-09-03T10:22:56.573Z,95920.75
2022-09-03T10:28:02.044Z,95927.78
2022-09-03T10:33:12.723Z,95921.53
2022-09-03T10:38:20.942Z,95914.06
2022-09-03T10:43:53.226Z,95915.94
2022-09-03T10:49:21.753Z,95918.16
2022-09-03T10:54:48.409Z,95918.59
2022-09-03T11:00:07.657Z,95906.00
2022-09-03T11:05:16.265Z,95901.56
2022-09-03T11:10:30.893Z,95916.47
2022-09-03T11:15:40.182Z,95900.47
2022-09-03T11:20:45.053Z,95893.16
2022-09-03T11:25:52.559Z,95889.03
2022-09-03T11:31:13.480Z,95887.41
2022-09-03T11:36:28.188Z,95894.25
2022-09-03T11:41:36.234Z,95886.94
2022-09-03T11:46:41.596Z,95877.69
2022-09-03T11:51:44.975Z,95870.66
2022-09-03T11:56:50.584Z,95871.44
2022-09-03T12:01:59.981Z,95868.56
2022-09-03T12:07:20.100Z,95880.47
2022-09-03T12:12:39.604Z,95879.75
2022-09-03T12:18:13.341Z,95884.56
2022-09-03T12:23:28.574Z,95900.03
2022-09-03T12:28:33.880Z,95904.00
2022-09-03T12:33:42.849Z,95851.59
2022-09-03T12:39:10.330Z,95882.47
2022-09-03T12:44:11.794Z,95890.06
2022-09-03T12:49:31.882Z,95878.28
2022-09-03T12:54:35.967Z,95872.97
2022-09-03T12:59:40.295Z,95869.34
2022-09-03T13:04:45.849Z,95863.72
2022-09-03T13:09:49.420Z,95861.75
2022-09-03T13:14:52.712Z,95867.31
2022-09-03T13:20:22.638Z,95848.06
2022-09-03T13:25:29.296Z,95841.50
2022-09-03T13:30:39.512Z,95850.69
2022-09-03T13:35:49.441Z,95831.34
2022-09-03T13:40:57.145Z,95832.69
2022-09-03T13:46:03.720Z,95816.91
2022-09-03T13:51:15.947Z,95833.00
2022-09-03T13:56:35.673Z,95817.16
2022-09-03T14:01:54.591Z,95808.56
2022-09-03T14:07:03.995Z,95806.97
2022-09-03T14:12:15.364Z,95801.06
2022-09-03T14:17:27.809Z,95792.34
2022-09-03T14:22:45.699Z,95777.00
2022-09-03T14:27:49.129Z,95789.00
2022-09-03T14:33:03.280Z,95781.28
2022-09-03T14:38:25.966Z,95782.31
2022-09-03T14:43:49.499Z,95786.13
2022-09-03T14:49:07.627Z,95798.72
2022-09-03T14:54:28.716Z,95800.53
2022-09-03T15:00:01.917Z,95805.03
2022-09-03T15:05:12.845Z,95793.34
2022-09-03T15:10:25.725Z,95788.88
2022-09-03T15:15:36.137Z,95791.78
2022-09-03T15:20:50.078Z,95791.16
2022-09-03T15:26:16.189Z,95783.88
2022-09-03T15:31:27.464Z,95786.88
2022-09-03T15:36:37.384Z,95779.00
2022-09-03T15:41:51.554Z,95799.72
2022-09-03T15:46:57.847Z,95794.38
2022-09-03T15:52:10.783Z,95805.22
2022-09-03T15:57:21.467Z,95807.94
2022-09-03T16:02:33.374Z,95800.28
2022-09-03T16:07:50.435Z,95815.66
2022-09-03T16:13:04.638Z,95840.41
2022-09-03T16:18:14.759Z,95834.97
2022-09-03T16:23:24.651Z,95824.50
2022-09-03T16:28:32.361Z,95834.84
2022-09-03T16:33:43.647Z,95832.94
2022-09-03T16:38:54.297Z,95832.69
2022-09-03T16:44:07.333Z,95837.94
2022-09-03T16:49:37.978Z,95845.78
2022-09-03T16:55:03.118Z,95851.19
2022-09-03T17:00:11.584Z,95848.06
2022-09-03T17:05:30.872Z,95839.13
2022-09-03T17:10:44.615Z,95830.13
2022-09-03T17:15:58.483Z,95826.44
2022-09-03T17:21:13.069Z,95821.78
2022-09-03T17:26:29.282Z,95829.41
2022-09-03T17:31:51.415Z,95821.19
2022-09-03T17:37:06.220Z,95829.53
2022-09-03T17:42:17.331Z,95820.72
2022-09-03T17:47:57.177Z,95833.28
2022-09-03T17:53:05.352Z,95838.41
2022-09-03T17:58:14.426Z,95842.16
2022-09-03T18:03:25.538Z,95858.09
2022-09-03T18:08:37.662Z,95868.91
2022-09-03T18:14:01.664Z,95873.63
2022-09-03T18:19:18.271Z,95884.69
2022-09-03T18:24:50.810Z,95887.97
2022-09-03T18:30:18.089Z,95907.31
2022-09-03T18:35:39.605Z,95913.63
2022-09-03T18:41:11.521Z,95924.56
2022-09-03T18:52:29.500Z,95931.06
2022-09-03T18:58:02.558Z,95931.50
2022-09-03T19:04:00.791Z,95940.78
2022-09-03T19:09:28.580Z,95944.81
2022-09-03T19:14:57.748Z,95941.91
2022-09-03T19:20:27.657Z,95947.75
2022-09-03T19:25:50.533Z,95948.09
2022-09-03T19:31:24.891Z,95951.66
2022-09-03T19:36:51.119Z,95964.97
2022-09-03T19:42:20.941Z,95956.75
2022-09-03T19:47:52.932Z,95973.09
2022-09-03T19:53:18.261Z,95974.63
2022-09-03T19:58:44.529Z,95970.94
2022-09-03T20:04:04.835Z,95979.81
2022-09-03T20:09:27.752Z,95978.94
2022-09-03T20:14:34.413Z,95994.75
2022-09-03T20:19:50.468Z,96008.16
2022-09-03T20:25:07.365Z,96003.97
2022-09-03T20:30:16.229Z,96005.41
2022-09-03T20:35:28.153Z,96019.09
2022-09-03T20:40:41.586Z,96012.97
2022-09-03T20:45:59.270Z,96024.50
2022-09-03T20:51:12.089Z,96026.25
2022-09-03T20:56:23.129Z,96024.41
2022-09-03T21:01:35.552Z,96035.22
2022-09-03T21:06:45.396Z,96031.19
2022-09-03T21:11:54.635Z,96038.41
2022-09-03T21:17:13.091Z,96036.03
2022-09-03T21:22:29.011Z,96032.69
2022-09-03T21:27:37.372Z,96042.69
2022-09-03T21:32:47.657Z,96046.13
2022-09-03T21:37:56.517Z,96042.63
2022-09-03T21:43:08.575Z,96049.25
2022-09-03T21:48:19.221Z,96060.06
2022-09-03T21:53:28.092Z,96061.06
2022-09-03T21:58:46.852Z,96059.88
2022-09-03T22:03:50.968Z,96075.25
2022-09-03T22:09:00.124Z,96081.84
2022-09-03T22:14:10.298Z,96100.28
2022-09-03T22:19:14.882Z,96103.72
2022-09-03T22:24:23.451Z,96120.91
2022-09-03T22:29:37.014Z,96128.41
2022-09-03T22:34:57.014Z,96134.22
2022-09-03T22:40:07.677Z,96132.88
2022-09-03T22:45:26.697Z,96139.66
2022-09-03T22:50:35.059Z,96144.56
2022-09-03T22:55:42.153Z,96151.66
2022-09-03T23:00:49.620Z,96155.38
2022-09-03T23:06:04.432Z,96167.44
2022-09-03T23:11:13.668Z,96177.25
2022-09-03T23:16:25.096Z,96184.41
2022-09-03T23:21:40.733Z,96175.31
2022-09-03T23:26:47.529Z,96190.31
2022-09-03T23:31:51.257Z,96189.31
2022-09-03T23:37:35.017Z,96177.03
2022-09-03T23:42:51.411Z,96175.66
2022-09-03T23:48:00.483Z,96182.19
2022-09-03T23:53:19.498Z,96180.28
2022-09-03T23:58:37.841Z,96187.94
